Time;durP1;ratioP1;P1;durP2;ratioP2;P2;SDS_P1;SDS_P2;PMS_P1;PMS_P2;Temp;Humidity;BMP_temperature;BMP_pressure;BME280_temperature;BME280_humidity;BME280_pressure;Samples;Min_cycle;Max_cycle;Signal;HPM_P1;HPM_P2
2024/01/21 00:00:12;;;;;;;22.02;6.53;;;21.30;44.60;;;;;;10439038;28;20136;-46
2024/01/21 00:05:15;;;;;;;11.43;6.20;;;21.30;45.00;;;;;;10432570;28;20494;-47
2024/01/21 00:10:17;;;;;;;16.23;5.95;;;21.30;44.50;;;;;;10433314;28;20569;-46
2024/01/21 00:15:19;;;;;;;20.48;6.80;;;21.30;44.30;;;;;;10434338;28;20484;-47
2024/01/21 00:20:22;;;;;;;20.35;6.35;;;21.30;44.50;;;;;;10434321;28;20494;-50
2024/01/21 00:25:23;;;;;;;8.10;5.35;;;21.40;44.40;;;;;;10435322;28;20124;-48
2024/01/21 00:30:25;;;;;;;13.82;5.88;;;21.20;44.60;;;;;;10435875;28;20055;-50
2024/01/21 00:35:28;;;;;;;10.73;5.55;;;21.20;44.50;;;;;;10436792;28;20087;-46
2024/01/21 00:40:29;;;;;;;13.60;5.63;;;21.30;44.30;;;;;;10428629;28;20060;-50
2024/01/21 00:45:31;;;;;;;9.38;4.90;;;21.30;44.30;;;;;;10431467;28;20083;-48
2024/01/21 00:50:34;;;;;;;12.05;5.47;;;21.20;44.40;;;;;;10428068;28;20046;-46
2024/01/21 00:55:35;;;;;;;13.65;5.28;;;21.40;44.40;;;;;;10436302;28;20053;-47
2024/01/21 01:00:37;;;;;;;13.73;5.40;;;21.20;44.50;;;;;;10426618;28;20179;-48
2024/01/21 01:05:40;;;;;;;14.80;5.88;;;21.30;44.80;;;;;;10427254;28;20048;-48
2024/01/21 01:10:42;;;;;;;16.83;5.13;;;21.80;44.60;;;;;;10436322;28;20055;-48
2024/01/21 01:15:43;;;;;;;16.45;5.15;;;22.80;42.50;;;;;;10436216;28;20044;-46
2024/01/21 01:20:46;;;;;;;14.18;5.32;;;23.10;41.90;;;;;;10428177;28;20053;-50
2024/01/21 01:25:48;;;;;;;15.57;5.22;;;23.20;41.70;;;;;;10427885;28;20081;-47
2024/01/21 01:30:50;;;;;;;8.05;4.38;;;23.10;42.10;;;;;;10430240;28;20060;-48
2024/01/21 01:35:53;;;;;;;9.90;4.57;;;23.10;42.00;;;;;;10426258;28;20140;-51
2024/01/21 01:40:55;;;;;;;8.88;4.40;;;23.10;42.10;;;;;;10426921;28;20472;-47
2024/01/21 01:45:56;;;;;;;10.38;4.22;;;23.30;41.70;;;;;;10434193;28;20063;-47
2024/01/21 01:50:59;;;;;;;8.00;4.20;;;23.30;41.60;;;;;;10433189;28;20128;-47
2024/01/21 01:56:02;;;;;;;8.32;3.97;;;23.40;41.40;;;;;;10428072;28;20055;-46
2024/01/21 02:01:03;;;;;;;6.50;3.67;;;23.40;41.40;;;;;;10429763;28;20068;-47
2024/01/21 02:06:07;;;;;;;6.07;3.95;;;23.50;41.40;;;;;;10426454;28;20055;-49
2024/01/21 02:11:08;;;;;;;5.90;3.60;;;23.50;41.40;;;;;;10435094;28;20042;-48
2024/01/21 02:16:10;;;;;;;6.93;3.80;;;23.40;41.70;;;;;;10423814;28;20048;-48
2024/01/21 02:21:13;;;;;;;8.77;3.20;;;23.50;41.60;;;;;;10430515;28;20047;-47
2024/01/21 02:26:16;;;;;;;8.93;3.45;;;23.50;42.10;;;;;;10430138;28;20147;-49
2024/01/21 02:31:17;;;;;;;7.90;3.25;;;22.30;43.50;;;;;;10434174;28;20045;-47
2024/01/21 02:36:19;;;;;;;7.25;3.42;;;21.80;44.40;;;;;;10433099;28;20063;-46
2024/01/21 02:41:22;;;;;;;9.13;2.85;;;21.60;44.60;;;;;;10435778;28;20041;-50
2024/01/21 02:46:26;;;;;;;6.60;3.15;;;21.50;45.10;;;;;;10439293;28;20049;-47
2024/01/21 02:51:28;;;;;;;6.28;3.33;;;21.60;45.00;;;;;;10433745;28;20131;-46
2024/01/21 02:56:31;;;;;;;6.88;3.00;;;21.40;45.40;;;;;;10429332;28;20055;-50
2024/01/21 03:01:33;;;;;;;6.93;3.53;;;21.30;45.70;;;;;;10432451;28;20208;-46
2024/01/21 03:06:35;;;;;;;9.95;3.40;;;21.30;45.80;;;;;;10440997;28;20063;-48
2024/01/21 03:11:38;;;;;;;7.13;2.85;;;21.50;46.10;;;;;;10433304;28;20033;-46
2024/01/21 03:16:39;;;;;;;5.28;3.00;;;21.40;45.90;;;;;;10436798;28;20526;-47
2024/01/21 03:21:41;;;;;;;7.38;3.17;;;21.20;46.20;;;;;;10432992;28;20380;-49
2024/01/21 03:26:44;;;;;;;11.27;3.13;;;21.10;47.10;;;;;;10437150;28;20073;-47
2024/01/21 03:31:46;;;;;;;14.50;3.85;;;21.30;46.10;;;;;;10427874;28;20037;-46
2024/01/21 03:36:47;;;;;;;10.35;3.58;;;21.20;46.90;;;;;;10427286;28;20128;-51
2024/01/21 03:41:50;;;;;;;4.70;2.85;;;21.10;47.10;;;;;;10437476;28;20123;-49
2024/01/21 03:46:52;;;;;;;11.70;3.28;;;21.10;47.60;;;;;;10435474;28;20059;-47
2024/01/21 03:51:53;;;;;;;9.07;2.90;;;21.10;47.70;;;;;;10434643;28;20049;-51
2024/01/21 03:56:58;;;;;;;6.15;3.03;;;21.10;47.20;;;;;;10439482;28;20045;-49
2024/01/21 04:02:00;;;;;;;7.57;3.22;;;21.00;47.40;;;;;;10436654;28;20038;-53
2024/01/21 04:07:01;;;;;;;8.63;3.38;;;21.40;47.30;;;;;;10432377;28;20055;-47
2024/01/21 04:12:05;;;;;;;5.22;3.25;;;22.50;45.10;;;;;;10424549;28;20079;-47
2024/01/21 04:17:06;;;;;;;7.15;3.30;;;22.90;44.30;;;;;;10428543;28;20052;-48
2024/01/21 04:22:08;;;;;;;5.63;3.10;;;23.10;43.80;;;;;;10438293;28;20918;-48
2024/01/21 04:27:11;;;;;;;6.78;3.10;;;23.20;43.50;;;;;;10429089;28;20049;-48
2024/01/21 04:32:12;;;;;;;3.20;2.60;;;23.30;43.20;;;;;;10431666;28;20049;-47
2024/01/21 04:37:14;;;;;;;6.35;3.35;;;23.30;43.00;;;;;;10430245;28;20056;-47
2024/01/21 04:42:17;;;;;;;4.32;3.00;;;23.40;42.80;;;;;;10437770;28;20045;-50
2024/01/21 04:47:24;;;;;;;3.95;2.85;;;23.40;42.70;;;;;;10426224;28;20049;-47
2024/01/21 04:52:27;;;;;;;3.60;2.42;;;23.30;42.60;;;;;;10426085;28;20049;-46
2024/01/21 04:57:30;;;;;;;3.92;2.70;;;23.50;42.50;;;;;;10433911;28;20059;-49
2024/01/21 05:02:32;;;;;;;5.60;3.30;;;23.30;42.40;;;;;;10429182;28;20409;-47
2024/01/21 05:07:33;;;;;;;3.63;3.00;;;23.40;42.30;;;;;;10428929;28;20049;-50
2024/01/21 05:12:37;;;;;;;4.32;2.72;;;23.40;42.50;;;;;;10435360;28;20082;-50
2024/01/21 05:17:38;;;;;;;5.47;2.78;;;23.50;42.30;;;;;;10427982;28;20063;-47
2024/01/21 05:22:40;;;;;;;3.92;2.45;;;23.50;42.20;;;;;;10430911;28;20049;-47
2024/01/21 05:27:43;;;;;;;3.70;2.65;;;23.60;42.10;;;;;;10427355;28;20049;-49
2024/01/21 05:32:46;;;;;;;4.63;2.70;;;23.70;41.80;;;;;;10428743;28;20045;-48
2024/01/21 05:37:47;;;;;;;2.80;2.40;;;23.70;41.80;;;;;;10432001;28;20075;-47
2024/01/21 05:42:50;;;;;;;3.85;2.35;;;23.60;41.90;;;;;;10427221;28;20060;-49
2024/01/21 05:47:52;;;;;;;6.03;2.75;;;23.70;41.90;;;;;;10433157;28;20053;-48
2024/01/21 05:52:53;;;;;;;5.10;2.70;;;23.60;42.20;;;;;;10429261;28;20129;-49
2024/01/21 05:57:56;;;;;;;3.65;2.47;;;23.60;42.10;;;;;;10430780;28;20147;-46
2024/01/21 06:02:58;;;;;;;3.05;2.63;;;23.70;42.10;;;;;;10427296;28;20508;-46
2024/01/21 06:08:00;;;;;;;3.75;2.83;;;23.70;41.70;;;;;;10432925;28;20053;-47
2024/01/21 06:13:03;;;;;;;3.78;2.80;;;22.90;43.00;;;;;;10437585;28;20037;-49
2024/01/21 06:18:05;;;;;;;4.00;2.42;;;22.60;43.70;;;;;;10437694;28;20055;-48
2024/01/21 06:23:07;;;;;;;6.45;2.40;;;22.40;44.70;;;;;;10438169;28;20493;-49
2024/01/21 06:28:10;;;;;;;11.23;3.45;;;22.50;44.10;;;;;;10446097;28;20059;-47
2024/01/21 06:33:11;;;;;;;6.95;3.05;;;23.00;43.80;;;;;;10439097;28;20049;-48
2024/01/21 06:38:13;;;;;;;7.68;2.70;;;23.50;43.00;;;;;;10440849;28;20046;-47
2024/01/21 06:43:16;;;;;;;6.47;2.90;;;23.60;43.00;;;;;;10438057;28;20067;-51
2024/01/21 06:48:17;;;;;;;5.38;2.70;;;23.60;43.00;;;;;;10439677;28;20137;-47
2024/01/21 06:53:19;;;;;;;5.35;2.72;;;23.60;43.10;;;;;;10439011;28;20153;-50
2024/01/21 06:58:22;;;;;;;3.45;2.60;;;23.70;43.30;;;;;;10433395;28;20096;-47
2024/01/21 07:03:24;;;;;;;3.92;2.78;;;23.80;43.20;;;;;;10440951;28;20047;-50
2024/01/21 07:08:25;;;;;;;6.57;3.35;;;23.90;43.10;;;;;;10436417;28;20124;-53
2024/01/21 07:13:28;;;;;;;8.48;5.88;;;23.60;43.20;;;;;;10435237;28;20048;-47
2024/01/21 07:18:30;;;;;;;10.95;5.38;;;23.30;43.10;;;;;;10435625;28;20055;-47
2024/01/21 07:23:31;;;;;;;7.30;5.00;;;23.60;39.90;;;;;;10434874;28;20055;-49
2024/01/21 07:28:34;;;;;;;6.03;3.70;;;23.60;37.90;;;;;;10442643;28;20041;-49
2024/01/21 07:33:36;;;;;;;4.72;3.67;;;23.80;34.00;;;;;;10434070;28;20147;-47
2024/01/21 07:38:37;;;;;;;3.50;3.20;;;23.80;32.40;;;;;;10437565;28;20124;-52
2024/01/21 07:43:40;;;;;;;8.63;3.47;;;23.90;32.20;;;;;;10432595;28;20057;-48
2024/01/21 07:48:42;;;;;;;3.00;2.70;;;23.80;31.60;;;;;;10437120;28;20632;-49
2024/01/21 07:53:44;;;;;;;4.40;2.60;;;23.70;31.10;;;;;;10434444;28;20406;-50
2024/01/21 07:58:46;;;;;;;3.50;2.28;;;23.70;31.10;;;;;;10435929;28;20040;-49
2024/01/21 08:03:48;;;;;;;5.18;2.38;;;23.60;30.00;;;;;;10436689;28;20132;-48
2024/01/21 08:08:50;;;;;;;2.92;2.30;;;24.00;29.30;;;;;;10437722;28;20052;-53
2024/01/21 08:13:53;;;;;;;3.65;1.80;;;23.70;28.90;;;;;;10426859;28;20499;-51
2024/01/21 08:18:55;;;;;;;3.83;2.03;;;23.70;28.60;;;;;;10435545;28;20045;-50
2024/01/21 08:23:56;;;;;;;2.17;1.67;;;23.60;28.40;;;;;;10431542;28;20057;-49
2024/01/21 08:28:59;;;;;;;5.88;2.10;;;23.60;28.90;;;;;;10435773;28;20120;-50
2024/01/21 08:34:01;;;;;;;2.97;1.70;;;24.00;28.60;;;;;;10437940;28;20053;-47
2024/01/21 08:39:05;;;;;;;1.80;1.50;;;24.00;27.60;;;;;;10435195;28;20045;-45
2024/01/21 08:44:08;;;;;;;3.53;1.77;;;24.00;27.30;;;;;;10434043;28;20052;-51
2024/01/21 08:49:10;;;;;;;5.15;1.63;;;23.90;26.70;;;;;;10433319;28;20045;-46
2024/01/21 08:54:11;;;;;;;6.72;1.80;;;23.90;28.80;;;;;;10432762;28;20081;-50
2024/01/21 08:59:14;;;;;;;6.95;1.65;;;23.70;30.00;;;;;;10436016;28;20127;-52
2024/01/21 09:04:16;;;;;;;5.60;1.55;;;23.50;30.80;;;;;;10431118;28;20033;-49
2024/01/21 09:09:17;;;;;;;12.50;1.98;;;23.70;31.20;;;;;;10434202;28;20045;-53
2024/01/21 09:14:20;;;;;;;5.22;1.50;;;23.80;31.70;;;;;;10436497;28;20047;-50
2024/01/21 09:19:22;;;;;;;7.07;2.33;;;23.70;31.20;;;;;;10433582;28;20503;-49
2024/01/21 09:24:23;;;;;;;9.85;2.03;;;24.00;32.00;;;;;;10432587;28;20476;-54
2024/01/21 09:29:26;;;;;;;8.98;2.85;;;24.20;32.60;;;;;;10431532;28;20414;-56
2024/01/21 09:34:28;;;;;;;16.45;3.50;;;24.10;35.10;;;;;;10433159;28;20048;-53
2024/01/21 09:39:30;;;;;;;12.25;3.20;;;24.10;36.50;;;;;;10433590;28;20067;-53
2024/01/21 09:44:32;;;;;;;22.60;4.07;;;24.30;36.70;;;;;;10434958;28;20071;-50
2024/01/21 09:49:34;;;;;;;17.73;5.45;;;24.30;37.00;;;;;;10434195;28;20135;-52
2024/01/21 09:54:36;;;;;;;17.75;4.82;;;24.10;37.80;;;;;;10433123;28;20048;-50
2024/01/21 09:59:39;;;;;;;21.50;5.05;;;24.30;37.50;;;;;;10436503;28;20049;-49
2024/01/21 10:04:41;;;;;;;11.70;4.18;;;24.20;37.90;;;;;;10428617;28;20107;-52
2024/01/21 10:09:42;;;;;;;11.13;3.45;;;24.30;36.10;;;;;;10435580;28;20499;-50
2024/01/21 10:14:45;;;;;;;11.45;3.58;;;24.40;34.30;;;;;;10429250;28;20041;-52
2024/01/21 10:19:47;;;;;;;10.85;3.67;;;24.40;34.00;;;;;;10433770;28;20063;-55
2024/01/21 10:24:49;;;;;;;8.95;3.75;;;24.30;32.50;;;;;;10433497;28;20041;-51
2024/01/21 10:29:54;;;;;;;10.82;3.65;;;24.40;31.50;;;;;;10429435;28;20056;-55
2024/01/21 10:34:56;;;;;;;10.48;3.53;;;24.20;30.80;;;;;;10435268;28;20049;-53
2024/01/21 10:39:58;;;;;;;6.40;3.13;;;24.30;30.30;;;;;;10439224;28;20140;-53
2024/01/21 10:45:00;;;;;;;9.07;3.97;;;24.40;29.70;;;;;;10428645;28;20052;-51
2024/01/21 10:50:02;;;;;;;6.75;3.40;;;24.40;29.30;;;;;;10432354;28;20583;-53
2024/01/21 10:55:04;;;;;;;6.57;3.83;;;24.10;28.30;;;;;;10432687;28;20053;-49
2024/01/21 11:00:09;;;;;;;6.93;4.22;;;24.10;28.20;;;;;;10436427;28;20096;-52
2024/01/21 11:05:11;;;;;;;5.32;3.78;;;23.80;29.20;;;;;;10433007;28;20095;-53
2024/01/21 11:10:12;;;;;;;5.32;3.80;;;23.50;30.00;;;;;;10428942;28;20045;-52
2024/01/21 11:15:30;;;;;;;5.60;4.10;;;23.50;29.90;;;;;;10436074;28;20051;-52
2024/01/21 11:20:32;;;;;;;5.30;3.95;;;23.50;29.30;;;;;;10431946;28;20253;-49
2024/01/21 11:25:34;;;;;;;5.03;3.60;;;23.80;29.60;;;;;;10432865;28;20067;-51
2024/01/21 11:30:37;;;;;;;5.15;3.28;;;24.10;28.60;;;;;;10433366;28;20081;-55
2024/01/21 11:35:38;;;;;;;5.10;2.85;;;24.20;27.90;;;;;;10434264;28;20055;-53
2024/01/21 11:40:40;;;;;;;4.13;2.95;;;24.40;27.60;;;;;;10442385;28;20057;-53
2024/01/21 11:45:43;;;;;;;5.88;2.83;;;24.30;27.50;;;;;;10437139;28;20139;-52
2024/01/21 11:50:45;;;;;;;3.72;2.40;;;24.60;26.90;;;;;;10436373;28;20132;-51
2024/01/21 11:55:47;;;;;;;3.95;2.30;;;24.20;27.10;;;;;;10448136;28;20083;-52
2024/01/21 12:00:49;;;;;;;2.75;2.33;;;24.10;26.80;;;;;;10428734;28;20132;-49
2024/01/21 12:05:51;;;;;;;4.90;2.40;;;24.40;26.40;;;;;;10435505;28;20057;-50
2024/01/21 12:10:53;;;;;;;3.95;3.00;;;24.50;28.00;;;;;;10439970;28;20140;-52
2024/01/21 12:15:56;;;;;;;4.03;3.05;;;24.30;29.50;;;;;;10439451;28;20051;-51
2024/01/21 12:20:57;;;;;;;6.95;2.72;;;24.20;30.90;;;;;;10435615;28;20052;-50
2024/01/21 12:25:59;;;;;;;8.70;3.30;;;24.10;32.00;;;;;;10432345;28;20044;-53
2024/01/21 12:31:02;;;;;;;7.50;2.70;;;24.10;35.70;;;;;;10437275;28;20057;-52
2024/01/21 12:36:04;;;;;;;4.85;2.67;;;24.30;35.50;;;;;;10430149;28;20592;-54
2024/01/21 12:41:06;;;;;;;3.47;2.63;;;24.60;34.90;;;;;;10433478;28;20115;-53
2024/01/21 12:46:09;;;;;;;6.05;2.28;;;24.40;34.80;;;;;;10436497;28;20140;-57
2024/01/21 12:51:10;;;;;;;4.25;2.47;;;24.50;34.00;;;;;;10428960;28;20051;-51
2024/01/21 12:56:12;;;;;;;3.58;2.20;;;24.20;34.20;;;;;;10431504;28;20118;-54
2024/01/21 13:01:16;;;;;;;2.78;2.15;;;24.50;33.00;;;;;;10433859;28;20057;-50
2024/01/21 13:06:17;;;;;;;2.90;1.98;;;24.50;32.30;;;;;;10430098;28;20051;-52
2024/01/21 13:11:20;;;;;;;2.78;2.15;;;24.60;31.50;;;;;;10433476;28;20049;-51
2024/01/21 13:16:23;;;;;;;4.00;2.20;;;24.30;31.00;;;;;;10430790;28;20046;-51
2024/01/21 13:21:25;;;;;;;3.45;2.00;;;24.30;30.40;;;;;;10435113;28;20049;-51
2024/01/21 13:26:28;;;;;;;2.83;2.10;;;24.30;29.90;;;;;;10426845;28;20053;-52
2024/01/21 13:31:32;;;;;;;2.40;2.10;;;24.50;29.00;;;;;;10432625;28;20037;-53
2024/01/21 13:36:34;;;;;;;3.80;2.10;;;24.30;29.20;;;;;;10430106;28;20171;-54
2024/01/21 13:41:35;;;;;;;2.97;2.30;;;24.30;28.90;;;;;;10436314;28;20044;-56
2024/01/21 13:46:38;;;;;;;2.83;2.22;;;24.40;28.30;;;;;;10431996;28;20676;-54
2024/01/21 13:51:40;;;;;;;2.10;1.90;;;24.60;28.00;;;;;;10427061;28;21222;-53
2024/01/21 13:56:41;;;;;;;2.65;2.10;;;24.50;27.80;;;;;;10427547;28;20531;-51
2024/01/21 14:01:44;;;;;;;2.08;1.80;;;24.60;28.20;;;;;;10432589;28;20724;-54
2024/01/21 14:06:46;;;;;;;2.20;1.85;;;24.70;27.70;;;;;;10434911;28;20406;-51
2024/01/21 14:11:48;;;;;;;1.70;1.50;;;24.70;28.00;;;;;;10430916;28;20394;-51
2024/01/21 14:16:51;;;;;;;2.22;2.03;;;24.50;28.40;;;;;;10434677;28;20057;-50
2024/01/21 14:21:52;;;;;;;2.72;2.10;;;24.60;27.80;;;;;;10432345;28;20147;-50
2024/01/21 14:26:54;;;;;;;2.42;2.10;;;24.70;27.50;;;;;;10426545;28;20525;-54
2024/01/21 14:31:57;;;;;;;2.40;2.15;;;24.60;27.70;;;;;;10436320;28;20510;-52
2024/01/21 14:36:59;;;;;;;3.20;2.17;;;24.70;27.60;;;;;;10438209;28;20495;-54
2024/01/21 14:42:00;;;;;;;11.30;2.20;;;24.90;27.40;;;;;;10438861;28;20510;-51
2024/01/21 14:47:03;;;;;;;2.17;1.98;;;24.80;27.30;;;;;;10441891;28;20048;-52
2024/01/21 14:52:06;;;;;;;2.30;2.00;;;24.80;27.50;;;;;;10443708;28;20053;-54
2024/01/21 14:57:07;;;;;;;3.22;2.20;;;24.80;27.30;;;;;;10438588;28;20387;-52
2024/01/21 15:02:10;;;;;;;5.25;2.38;;;24.50;27.40;;;;;;10438510;28;20124;-54
2024/01/21 15:07:12;;;;;;;6.25;2.10;;;24.40;27.80;;;;;;10430609;28;20047;-56
2024/01/21 15:12:13;;;;;;;2.72;2.22;;;24.20;28.30;;;;;;10431450;28;20037;-51
2024/01/21 15:17:16;;;;;;;3.00;2.03;;;24.10;28.90;;;;;;10435927;28;20375;-50
2024/01/21 15:22:18;;;;;;;8.05;2.60;;;24.30;29.50;;;;;;10443424;28;20409;-51
2024/01/21 15:27:21;;;;;;;4.35;2.35;;;24.40;30.10;;;;;;10440311;28;20124;-53
2024/01/21 15:32:24;;;;;;;5.25;2.03;;;24.40;29.60;;;;;;10443253;28;20139;-52
2024/01/21 15:37:25;;;;;;;5.72;1.88;;;24.30;30.60;;;;;;10439128;28;20057;-52
2024/01/21 15:42:27;;;;;;;11.85;1.92;;;24.40;31.20;;;;;;10429941;28;20059;-54
2024/01/21 15:47:30;;;;;;;3.75;1.98;;;24.50;31.60;;;;;;10430509;28;20050;-54
2024/01/21 15:52:34;;;;;;;2.40;2.00;;;24.50;31.00;;;;;;10428225;28;20037;-51
2024/01/21 15:57:35;;;;;;;2.67;1.90;;;24.50;30.90;;;;;;10430093;28;20095;-55
2024/01/21 16:02:38;;;;;;;3.15;1.75;;;24.60;31.00;;;;;;10434117;28;20033;-52
2024/01/21 16:07:40;;;;;;;1.85;1.50;;;24.60;31.30;;;;;;10433651;28;20516;-54
2024/01/21 16:12:42;;;;;;;2.88;1.70;;;24.70;31.50;;;;;;10430057;28;20377;-49
2024/01/21 16:17:46;;;;;;;2.30;1.60;;;25.00;31.00;;;;;;10435742;28;20048;-53
2024/01/21 16:22:48;;;;;;;2.95;1.70;;;25.00;31.00;;;;;;10429324;28;20069;-53
2024/01/21 16:27:49;;;;;;;2.92;1.33;;;25.10;31.30;;;;;;10429934;28;20045;-50
2024/01/21 16:32:52;;;;;;;2.35;1.73;;;24.90;31.90;;;;;;10430710;28;20037;-52
2024/01/21 16:37:54;;;;;;;1.60;1.40;;;25.00;32.00;;;;;;10432590;28;20128;-49
2024/01/21 16:42:57;;;;;;;1.35;1.25;;;25.00;32.10;;;;;;10430091;28;20562;-48
2024/01/21 16:48:01;;;;;;;2.45;1.50;;;24.90;32.50;;;;;;10431962;28;20136;-47
2024/01/21 16:53:07;;;;;;;1.30;1.20;;;25.00;32.80;;;;;;10429839;28;20503;-47
2024/01/21 16:58:08;;;;;;;1.35;1.20;;;25.10;32.60;;;;;;10432395;28;20080;-49
2024/01/21 17:03:12;;;;;;;1.58;1.23;;;25.40;32.60;;;;;;10422339;28;20416;-49
2024/01/21 17:08:13;;;;;;;2.10;1.88;;;25.80;32.30;;;;;;10426016;28;20052;-47
2024/01/21 17:13:15;;;;;;;2.38;1.90;;;25.80;30.60;;;;;;10434172;28;20052;-48
2024/01/21 17:18:27;;;;;;;2.95;2.00;;;25.90;30.30;;;;;;10434764;28;20131;-46
2024/01/21 17:23:29;;;;;;;2.50;2.05;;;25.70;30.70;;;;;;10433440;28;20045;-46
2024/01/21 17:28:31;;;;;;;2.40;1.90;;;25.60;30.70;;;;;;10436224;28;20055;-49
2024/01/21 17:33:34;;;;;;;2.08;1.80;;;25.40;31.40;;;;;;10438508;28;20037;-48
2024/01/21 17:38:36;;;;;;;2.67;2.17;;;25.50;32.20;;;;;;10421859;28;20136;-50
2024/01/21 17:43:37;;;;;;;6.00;2.17;;;25.00;32.40;;;;;;10432829;28;20056;-49
2024/01/21 17:48:40;;;;;;;16.40;2.40;;;25.10;32.50;;;;;;10434097;28;20045;-46
2024/01/21 17:53:42;;;;;;;4.53;2.40;;;25.10;32.50;;;;;;10437078;28;20048;-47
2024/01/21 17:58:44;;;;;;;4.00;1.88;;;25.10;32.50;;;;;;10436212;28;20073;-50
2024/01/21 18:03:47;;;;;;;2.03;1.60;;;25.20;32.60;;;;;;10436471;28;20056;-46
2024/01/21 18:08:49;;;;;;;4.45;1.67;;;25.10;32.70;;;;;;10442459;28;20045;-46
2024/01/21 18:13:51;;;;;;;6.07;2.40;;;25.10;33.00;;;;;;10438902;28;20099;-47
2024/01/21 18:18:54;;;;;;;7.18;2.80;;;25.00;33.40;;;;;;10433536;28;20551;-51
2024/01/21 18:23:56;;;;;;;5.80;3.35;;;25.10;33.40;;;;;;10439717;28;20470;-49
2024/01/21 18:28:57;;;;;;;6.78;3.47;;;25.10;31.70;;;;;;10441651;28;20092;-48
2024/01/21 18:34:00;;;;;;;6.85;2.92;;;25.10;32.00;;;;;;10440330;28;20079;-46
2024/01/21 18:39:02;;;;;;;3.38;2.60;;;25.10;32.70;;;;;;10437421;28;20075;-47
2024/01/21 18:44:03;;;;;;;6.40;2.42;;;25.00;33.20;;;;;;10441880;28;20055;-46
2024/01/21 18:49:06;;;;;;;17.20;2.70;;;24.90;34.40;;;;;;10439618;28;20052;-46
2024/01/21 18:54:08;;;;;;;5.88;2.63;;;25.00;35.00;;;;;;10441429;28;20043;-48
2024/01/21 18:59:10;;;;;;;5.03;2.50;;;25.10;34.60;;;;;;10434572;28;20136;-46
2024/01/21 19:04:12;;;;;;;8.75;2.78;;;25.10;35.10;;;;;;10438177;28;20045;-47
2024/01/21 19:09:17;;;;;;;5.20;2.72;;;25.10;34.10;;;;;;10439284;28;20049;-49
2024/01/21 19:14:19;;;;;;;3.92;2.65;;;24.70;34.90;;;;;;10435968;28;20517;-49
2024/01/21 19:19:22;;;;;;;5.30;2.60;;;25.10;34.30;;;;;;10440034;28;20044;-48
2024/01/21 19:24:23;;;;;;;5.22;2.28;;;25.30;34.20;;;;;;10435029;28;20044;-51
2024/01/21 19:29:25;;;;;;;3.90;2.08;;;25.30;34.50;;;;;;10434057;28;20059;-47
2024/01/21 19:34:28;;;;;;;3.72;2.30;;;25.20;34.70;;;;;;10428848;28;20136;-46
2024/01/21 19:39:29;;;;;;;3.00;2.00;;;25.00;35.20;;;;;;10434145;28;20076;-46
2024/01/21 19:44:31;;;;;;;2.65;1.92;;;24.90;35.50;;;;;;10434451;28;20042;-49
2024/01/21 19:49:34;;;;;;;3.10;1.90;;;25.00;35.30;;;;;;10438324;28;20037;-47
2024/01/21 19:54:36;;;;;;;4.28;2.05;;;25.10;35.00;;;;;;10446159;28;20570;-52
2024/01/21 19:59:38;;;;;;;2.20;1.63;;;24.80;35.20;;;;;;10436499;28;20056;-47
2024/01/21 20:04:41;;;;;;;3.20;2.00;;;24.40;36.20;;;;;;10437299;28;20041;-48
2024/01/21 20:09:42;;;;;;;4.13;1.90;;;24.30;36.40;;;;;;10432061;28;20048;-46
2024/01/21 20:14:44;;;;;;;5.80;2.40;;;24.70;36.10;;;;;;10428231;28;20041;-47
2024/01/21 20:19:47;;;;;;;2.70;2.00;;;24.70;35.70;;;;;;10436121;28;20123;-46
2024/01/21 20:24:49;;;;;;;5.30;1.60;;;24.40;36.60;;;;;;10434581;28;20514;-46
2024/01/21 20:29:50;;;;;;;3.17;2.15;;;24.20;37.20;;;;;;10440992;28;20422;-50
2024/01/21 20:34:53;;;;;;;5.40;1.70;;;24.30;37.30;;;;;;10441011;28;20067;-47
2024/01/21 20:39:55;;;;;;;2.15;1.50;;;24.40;37.10;;;;;;10430564;28;20136;-50
2024/01/21 20:44:57;;;;;;;3.53;1.73;;;24.30;36.90;;;;;;10434576;28;20049;-47
2024/01/21 20:50:00;;;;;;;2.78;1.95;;;24.50;36.80;;;;;;10425722;28;20656;-46
2024/01/21 20:55:02;;;;;;;1.95;1.50;;;24.30;36.90;;;;;;10424602;28;20123;-47
2024/01/21 21:00:04;;;;;;;2.63;1.77;;;24.20;37.00;;;;;;10429195;28;20053;-47
2024/01/21 21:05:07;;;;;;;3.47;1.70;;;24.20;37.00;;;;;;10433397;28;20083;-47
2024/01/21 21:10:09;;;;;;;3.55;1.70;;;24.00;37.60;;;;;;10436075;28;20056;-51
2024/01/21 21:15:11;;;;;;;1.52;1.40;;;24.10;37.40;;;;;;10433350;28;20385;-47
2024/01/21 21:20:14;;;;;;;3.33;1.63;;;24.10;37.40;;;;;;10434710;28;20239;-49
2024/01/21 21:25:15;;;;;;;1.38;1.27;;;24.00;37.50;;;;;;10425270;28;20532;-46
2024/01/21 21:30:17;;;;;;;2.58;1.65;;;24.10;37.40;;;;;;10423059;28;20503;-47
2024/01/21 21:35:20;;;;;;;2.28;1.60;;;24.40;37.00;;;;;;10428934;28;20138;-47
2024/01/21 21:40:22;;;;;;;2.63;1.67;;;24.40;36.70;;;;;;10436680;28;20071;-46
2024/01/21 21:45:23;;;;;;;2.55;1.55;;;24.50;36.80;;;;;;10433699;28;20554;-49
2024/01/21 21:50:26;;;;;;;1.50;1.40;;;24.30;37.10;;;;;;10432682;28;20410;-47
2024/01/21 21:55:29;;;;;;;2.08;1.20;;;24.20;37.20;;;;;;10432128;28;20045;-50
2024/01/21 22:00:31;;;;;;;1.75;1.25;;;23.60;38.00;;;;;;10432213;28;20055;-46
2024/01/21 22:05:34;;;;;;;4.43;1.52;;;23.40;38.20;;;;;;10422602;28;20037;-47
2024/01/21 22:10:36;;;;;;;1.60;1.50;;;23.20;38.50;;;;;;10433934;28;20047;-47
2024/01/21 22:15:37;;;;;;;3.05;1.40;;;23.10;38.50;;;;;;10434547;28;20515;-46
2024/01/21 22:20:41;;;;;;;1.85;1.52;;;23.10;38.50;;;;;;10435277;28;20048;-49
2024/01/21 22:25:42;;;;;;;2.10;1.60;;;23.00;38.70;;;;;;10434847;28;20129;-46
2024/01/21 22:30:44;;;;;;;1.52;1.13;;;22.90;38.90;;;;;;10427551;28;20052;-47
2024/01/21 22:35:47;;;;;;;4.05;1.30;;;22.90;38.90;;;;;;10430487;28;20077;-48
2024/01/21 22:40:49;;;;;;;8.45;1.70;;;22.80;39.50;;;;;;10425353;28;20041;-49
2024/01/21 22:45:50;;;;;;;9.25;1.90;;;22.90;39.20;;;;;;10424705;28;20565;-47
2024/01/21 22:50:54;;;;;;;8.15;2.97;;;22.80;39.20;;;;;;10432528;28;20564;-46
2024/01/21 22:55:55;;;;;;;7.85;2.60;;;22.60;39.50;;;;;;10438615;28;20107;-46
2024/01/21 23:00:57;;;;;;;8.48;2.90;;;22.60;39.20;;;;;;10442004;28;20041;-49
2024/01/21 23:06:00;;;;;;;5.00;2.90;;;22.60;39.30;;;;;;10436476;28;20041;-46
2024/01/21 23:11:02;;;;;;;5.88;3.28;;;22.70;39.20;;;;;;10434819;28;20053;-51
2024/01/21 23:16:04;;;;;;;5.57;3.63;;;22.60;39.20;;;;;;10435756;28;20478;-47
2024/01/21 23:21:07;;;;;;;8.35;3.90;;;22.50;39.30;;;;;;10433237;28;20132;-48
2024/01/21 23:26:09;;;;;;;9.02;3.70;;;22.50;40.00;;;;;;10439730;28;20045;-46
2024/01/21 23:31:10;;;;;;;7.70;3.85;;;22.40;39.80;;;;;;10440734;28;20074;-49
2024/01/21 23:36:13;;;;;;;6.93;3.92;;;22.50;39.70;;;;;;10436957;28;20037;-48
2024/01/21 23:41:15;;;;;;;7.90;4.57;;;22.70;39.30;;;;;;10440900;28;20045;-49
2024/01/21 23:46:18;;;;;;;5.88;4.20;;;22.50;39.30;;;;;;10438150;28;20617;-49
2024/01/21 23:51:21;;;;;;;6.72;4.38;;;22.40;39.60;;;;;;10435551;28;20100;-49
2024/01/21 23:56:22;;;;;;;7.07;4.60;;;22.40;39.50;;;;;;10435640;28;20037;-47
